Hansen Road, Wisconsin
Current Conditions -  °F | °C
As of 2:53 PM on Friday 19 Dec 2014 (Local Time) from KGRB Reporting Station
Few Clouds Few Clouds  
Wind Chill: 30°   Ceiling: Unl
Heat Index: 30°   Visibility: 10mi
Dew Point: 22°   Wind: 3mph
Humidity: 72%   Direction: NA
Pressure: 30.27"   Gusts: NA
Location:  44.48°N, 88.0192°W
Report Text: KGRB 192053Z VRB03KT 10SM FEW023 M01/M06 A3027 RMK AO2 SLP262 T10111056 56007
Loading
Personal Weather Stations






























Interactive Weather Map New forecast layout! Learn more

10-Day Weather Forecast

Advertisements
Track Severe Weather on mobile